createdAt,value
2023-03-06T00:01:21.058Z,99529.81
2023-03-06T00:06:24.034Z,99526.38
2023-03-06T00:11:27.036Z,99532.56
2023-03-06T00:16:30.020Z,99524.72
2023-03-06T00:21:33.176Z,99512.59
2023-03-06T00:26:36.690Z,99513.56
2023-03-06T00:31:39.869Z,99502.50
2023-03-06T00:36:42.878Z,99500.22
2023-03-06T00:41:47.058Z,99507.38
2023-03-06T00:46:50.202Z,99501.47
2023-03-06T00:51:53.190Z,99504.06
2023-03-06T00:56:56.017Z,99503.94
2023-03-06T01:01:59.458Z,99498.44
2023-03-06T01:07:02.896Z,99491.06
2023-03-06T01:12:06.314Z,99476.09
2023-03-06T01:17:09.075Z,99476.91
2023-03-06T01:22:12.136Z,99475.81
2023-03-06T01:27:15.107Z,99474.03
2023-03-06T01:32:18.121Z,99465.22
2023-03-06T01:37:21.671Z,99464.16
2023-03-06T01:42:24.685Z,99469.25
2023-03-06T01:47:28.282Z,99462.22
2023-03-06T01:52:45.708Z,99463.78
2023-03-06T01:57:54.731Z,99467.94
2023-03-06T02:03:06.984Z,99474.69
2023-03-06T02:08:13.320Z,99466.00
2023-03-06T02:13:16.351Z,99465.06
2023-03-06T02:18:19.139Z,99461.34
2023-03-06T02:24:11.777Z,99458.59
2023-03-06T02:29:24.209Z,99459.56
2023-03-06T02:34:27.105Z,99456.13
2023-03-06T02:39:34.104Z,99460.53
2023-03-06T02:44:37.437Z,99458.75
2023-03-06T02:49:40.452Z,99461.22
2023-03-06T02:54:43.617Z,99459.44
2023-03-06T02:59:46.755Z,99450.66
2023-03-06T03:04:49.749Z,99462.63
2023-03-06T03:09:52.801Z,99467.88
2023-03-06T03:14:56.865Z,99455.25
2023-03-06T03:19:59.993Z,99457.72
2023-03-06T03:25:04.201Z,99449.63
2023-03-06T03:30:08.674Z,99452.94
2023-03-06T03:35:11.914Z,99437.91
2023-03-06T03:40:16.108Z,99443.97
2023-03-06T03:45:19.411Z,99436.84
2023-03-06T03:50:22.814Z,99434.91
2023-03-06T03:55:25.654Z,99428.72
2023-03-06T04:00:28.806Z,99428.72
2023-03-06T04:05:33.402Z,99437.41
2023-03-06T04:10:38.581Z,99440.16
2023-03-06T04:15:41.531Z,99444.56
2023-03-06T04:20:48.790Z,99444.56
2023-03-06T04:25:52.062Z,99446.50
2023-03-06T04:30:55.065Z,99436.25
2023-03-06T04:35:58.152Z,99444.38
2023-03-06T04:41:01.130Z,99441.19
2023-03-06T04:46:04.141Z,99436.31
2023-03-06T04:51:07.071Z,99447.16
2023-03-06T04:56:10.355Z,99444.13
2023-03-06T05:01:13.520Z,99440.34
2023-03-06T05:06:17.745Z,99443.34
2023-03-06T05:11:21.041Z,99446.56
2023-03-06T05:16:24.042Z,99445.69
2023-03-06T05:21:27.057Z,99441.47
2023-03-06T05:26:29.868Z,99445.50
2023-03-06T05:31:33.020Z,99446.94
2023-03-06T05:36:36.353Z,99450.06
2023-03-06T05:41:40.046Z,99455.56
2023-03-06T05:46:43.048Z,99445.59
2023-03-06T05:51:45.956Z,99445.94
2023-03-06T05:56:49.365Z,99445.13
2023-03-06T06:01:52.119Z,99449.25
2023-03-06T06:06:59.369Z,99445.69
2023-03-06T06:12:04.104Z,99449.97
2023-03-06T06:17:07.150Z,99455.78
2023-03-06T06:22:10.787Z,99458.03
2023-03-06T06:27:13.835Z,99457.91
2023-03-06T06:32:16.871Z,99462.06
2023-03-06T06:37:19.907Z,99461.69
2023-03-06T06:42:36.911Z,99455.84
2023-03-06T06:47:42.613Z,99465.81
2023-03-06T06:52:45.558Z,99459.13
2023-03-06T06:57:48.468Z,99466.34
2023-03-06T07:02:51.585Z,99458.59
2023-03-06T07:07:54.624Z,99469.38
2023-03-06T07:12:57.686Z,99470.09
2023-03-06T07:18:01.398Z,99481.28
2023-03-06T07:23:08.435Z,99477.56
2023-03-06T07:28:11.514Z,99474.91
2023-03-06T07:33:14.873Z,99490.16
2023-03-06T07:38:17.889Z,99495.78
2023-03-06T07:43:21.367Z,99497.22
2023-03-06T07:48:24.467Z,99490.41
2023-03-06T07:53:28.516Z,99500.09
2023-03-06T07:58:31.539Z,99505.66
2023-03-06T08:03:35.047Z,99503.59
2023-03-06T08:08:40.342Z,99488.31
2023-03-06T08:13:44.111Z,99499.25
2023-03-06T08:18:47.108Z,99497.75
2023-03-06T08:23:50.861Z,99499.16
2023-03-06T08:28:57.373Z,99509.22
2023-03-06T08:34:05.934Z,99492.94
2023-03-06T08:39:09.418Z,99500.28
2023-03-06T08:44:13.016Z,99494.75
2023-03-06T08:49:16.073Z,99500.00
2023-03-06T08:54:18.955Z,99505.69
2023-03-06T08:59:21.857Z,99500.03
2023-03-06T09:04:24.904Z,99504.22
2023-03-06T09:09:27.990Z,99490.84
2023-03-06T09:14:32.156Z,99483.00
2023-03-06T09:19:35.147Z,99475.28
2023-03-06T09:24:38.089Z,99470.69
2023-03-06T09:29:41.058Z,99464.91
2023-03-06T09:34:43.761Z,99454.84
2023-03-06T09:39:46.686Z,99451.53
2023-03-06T09:45:13.115Z,99453.53
2023-03-06T09:50:58.779Z,99449.50
2023-03-06T09:56:11.147Z,99452.25
2023-03-06T10:01:29.675Z,99447.44
2023-03-06T10:06:58.538Z,99449.16
2023-03-06T10:12:12.201Z,99441.03
2023-03-06T10:17:21.557Z,99445.91
2023-03-06T10:22:48.033Z,99445.03
2023-03-06T10:28:23.469Z,99437.22
2023-03-06T10:33:47.755Z,99429.69
2023-03-06T10:38:50.829Z,99425.25
2023-03-06T10:43:59.890Z,99416.69
2023-03-06T10:49:24.815Z,99406.81
2023-03-06T10:54:35.148Z,99394.00
2023-03-06T11:00:02.526Z,99386.56
2023-03-06T11:05:26.981Z,99384.84
2023-03-06T11:10:32.144Z,99372.22
2023-03-06T11:15:35.546Z,99360.09
2023-03-06T11:20:52.994Z,99345.50
2023-03-06T11:26:05.119Z,99345.81
2023-03-06T11:31:21.133Z,99334.84
2023-03-06T11:37:03.741Z,99313.16
2023-03-06T11:42:28.855Z,99300.00
2023-03-06T11:47:44.154Z,99295.09
2023-03-06T11:53:10.817Z,99288.34
2023-03-06T11:58:47.875Z,99276.16
2023-03-06T12:04:03.677Z,99268.44
2023-03-06T12:09:12.548Z,99253.84
2023-03-06T12:14:57.492Z,99260.28
2023-03-06T12:20:28.030Z,99254.31
2023-03-06T12:25:39.481Z,99249.47
2023-03-06T12:31:37.018Z,99247.09
2023-03-06T12:37:04.011Z,99243.72
2023-03-06T12:42:17.828Z,99242.69
2023-03-06T12:47:29.056Z,99234.91
2023-03-06T12:52:34.219Z,99231.06
2023-03-06T12:57:37.172Z,99227.28
2023-03-06T13:03:39.331Z,99220.44
2023-03-06T13:09:04.801Z,99219.13
2023-03-06T13:14:34.316Z,99213.38
2023-03-06T13:19:38.857Z,99213.25
2023-03-06T13:24:44.007Z,99208.56
2023-03-06T13:29:52.016Z,99204.97
2023-03-06T13:34:55.236Z,99190.75
2023-03-06T13:40:01.571Z,99197.84
2023-03-06T13:45:17.769Z,99187.31
2023-03-06T13:50:48.827Z,99181.25
2023-03-06T13:56:07.038Z,99193.13
2023-03-06T14:01:30.807Z,99184.03
2023-03-06T14:06:37.473Z,99180.31
2023-03-06T14:11:50.351Z,99167.19
2023-03-06T14:16:53.737Z,99161.13
2023-03-06T14:21:58.038Z,99166.72
2023-03-06T14:27:01.356Z,99163.72
2023-03-06T14:32:09.944Z,99160.72
2023-03-06T14:37:25.164Z,99146.56
2023-03-06T14:42:29.717Z,99152.59
2023-03-06T14:47:36.258Z,99141.72
2023-03-06T14:52:39.233Z,99140.53
2023-03-06T14:57:42.705Z,99132.25
2023-03-06T15:02:47.593Z,99128.59
2023-03-06T15:07:52.894Z,99138.81
2023-03-06T15:12:57.658Z,99137.84
2023-03-06T15:18:00.713Z,99136.03
2023-03-06T15:23:04.116Z,99127.63
2023-03-06T15:28:34.628Z,99125.31
2023-03-06T15:33:38.132Z,99119.50
2023-03-06T15:38:45.747Z,99130.47
2023-03-06T15:43:48.781Z,99128.34
2023-03-06T15:49:04.283Z,99119.38
2023-03-06T15:54:12.263Z,99124.13
2023-03-06T15:59:24.138Z,99133.28
2023-03-06T16:04:27.146Z,99127.19
2023-03-06T16:09:30.075Z,99139.69
2023-03-06T16:14:33.199Z,99137.50
2023-03-06T16:19:36.248Z,99136.00
2023-03-06T16:24:39.195Z,99129.75
2023-03-06T16:29:42.099Z,99115.09
2023-03-06T16:34:45.073Z,99120.69
2023-03-06T16:39:48.195Z,99141.97
2023-03-06T16:44:51.303Z,99135.28
2023-03-06T16:49:58.041Z,99136.03
2023-03-06T16:55:01.301Z,99143.97
2023-03-06T17:00:06.810Z,99141.28
2023-03-06T17:05:12.077Z,99134.66
2023-03-06T17:10:17.129Z,99139.06
2023-03-06T17:15:20.397Z,99140.06
2023-03-06T17:20:23.906Z,99135.63
2023-03-06T17:25:26.715Z,99134.28
2023-03-06T17:30:30.529Z,99133.59
2023-03-06T17:35:37.343Z,99129.47
2023-03-06T17:40:40.344Z,99123.53
2023-03-06T17:45:43.168Z,99121.06
2023-03-06T17:50:54.471Z,99124.66
2023-03-06T17:55:59.486Z,99123.28
2023-03-06T18:01:17.920Z,99130.47
2023-03-06T18:06:22.224Z,99142.38
2023-03-06T18:11:25.325Z,99132.03
2023-03-06T18:16:28.416Z,99145.16
2023-03-06T18:21:31.531Z,99143.22
2023-03-06T18:26:34.978Z,99145.84
2023-03-06T18:31:41.087Z,99116.69
2023-03-06T18:36:47.270Z,99132.72
2023-03-06T18:41:50.398Z,99118.38
2023-03-06T18:46:53.328Z,99124.50
2023-03-06T18:51:56.483Z,99104.91
2023-03-06T18:56:59.514Z,99108.94
2023-03-06T19:02:02.407Z,99103.56
2023-03-06T19:07:06.640Z,99114.94
2023-03-06T19:12:09.858Z,99124.78
2023-03-06T19:17:13.214Z,99118.88
2023-03-06T19:22:16.136Z,99124.94
2023-03-06T19:27:19.124Z,99119.72
2023-03-06T19:32:23.256Z,99116.03
2023-03-06T19:37:26.660Z,99108.44
2023-03-06T19:42:31.341Z,99092.84
2023-03-06T19:47:35.147Z,99099.91
2023-03-06T19:52:39.263Z,99098.81
2023-03-06T19:57:43.496Z,99107.06
2023-03-06T20:02:46.678Z,99096.59
2023-03-06T20:07:50.049Z,99095.22
2023-03-06T20:12:53.140Z,99108.28
2023-03-06T20:17:56.869Z,99111.19
2023-03-06T20:23:04.544Z,99110.09
2023-03-06T20:28:07.557Z,99113.38
2023-03-06T20:33:10.586Z,99126.34
2023-03-06T20:38:13.790Z,99130.34
2023-03-06T20:43:16.668Z,99135.19
2023-03-06T20:48:19.763Z,99100.44
2023-03-06T20:53:22.744Z,99102.81
2023-03-06T20:58:28.623Z,99096.31
2023-03-06T21:03:31.558Z,99100.44
2023-03-06T21:08:34.372Z,99119.00
2023-03-06T21:13:37.488Z,99103.00
2023-03-06T21:18:40.857Z,99111.38
2023-03-06T21:23:44.586Z,99116.94
2023-03-06T21:28:47.988Z,99127.09
2023-03-06T21:33:52.001Z,99138.00
2023-03-06T21:38:55.360Z,99134.03
2023-03-06T21:44:01.692Z,99132.53
2023-03-06T21:49:05.825Z,99130.09
2023-03-06T21:54:09.725Z,99133.84
2023-03-06T21:59:13.831Z,99111.13
2023-03-06T22:04:16.989Z,99110.69
2023-03-06T22:09:20.193Z,99102.94
2023-03-06T22:14:23.236Z,99114.09
2023-03-06T22:19:27.059Z,99119.84
2023-03-06T22:24:31.982Z,99115.69
2023-03-06T22:29:35.018Z,99105.81
2023-03-06T22:34:38.172Z,99110.50
2023-03-06T22:39:41.044Z,99101.44
2023-03-06T22:44:44.107Z,99102.81
2023-03-06T22:49:46.972Z,99108.75
2023-03-06T22:54:49.918Z,99104.06
2023-03-06T22:59:52.848Z,99100.91
2023-03-06T23:04:55.867Z,99117.31
2023-03-06T23:09:58.758Z,99121.44
2023-03-06T23:15:01.864Z,99115.78
2023-03-06T23:20:06.389Z,99121.84
2023-03-06T23:25:09.612Z,99132.63
2023-03-06T23:30:13.487Z,99124.78
2023-03-06T23:35:16.516Z,99125.53
2023-03-06T23:40:19.654Z,99126.88
2023-03-06T23:45:23.110Z,99114.47
2023-03-06T23:50:26.645Z,99120.59
2023-03-06T23:55:29.669Z,99120.69
